createdAt,value
2018-09-25T00:01:24.100Z,1.67
2018-09-25T00:04:32.785Z,2.03
2018-09-25T00:07:41.427Z,2.53
2018-09-25T00:10:50.460Z,2.20
2018-09-25T00:13:59.367Z,2.43
2018-09-25T00:17:08.057Z,2.53
2018-09-25T00:20:16.711Z,2.33
2018-09-25T00:23:25.408Z,1.90
2018-09-25T00:26:34.118Z,2.63
2018-09-25T00:29:42.949Z,2.33
2018-09-25T00:32:51.775Z,2.50
2018-09-25T00:36:00.600Z,2.40
2018-09-25T00:39:09.574Z,2.63
2018-09-25T00:42:18.331Z,2.37
2018-09-25T00:45:27.075Z,2.90
2018-09-25T00:48:35.807Z,2.17
2018-09-25T00:51:44.480Z,2.80
2018-09-25T00:54:53.290Z,2.47
2018-09-25T00:58:01.974Z,2.27
2018-09-25T01:01:10.650Z,2.30
2018-09-25T01:04:19.455Z,1.73
2018-09-25T01:07:28.142Z,2.00
2018-09-25T01:10:36.947Z,2.20
2018-09-25T01:13:45.765Z,2.03
2018-09-25T01:16:54.469Z,2.17
2018-09-25T01:20:03.369Z,2.37
2018-09-25T01:23:12.327Z,2.20
2018-09-25T01:26:21.107Z,2.50
2018-09-25T01:29:29.807Z,2.50
2018-09-25T01:32:38.512Z,2.07
2018-09-25T01:35:47.188Z,2.50
2018-09-25T01:38:55.948Z,2.00
2018-09-25T01:42:04.603Z,2.10
2018-09-25T01:45:13.365Z,2.30
2018-09-25T01:48:22.296Z,2.27
2018-09-25T01:51:31.073Z,2.50
2018-09-25T01:54:39.793Z,2.00
2018-09-25T01:57:48.622Z,2.30
2018-09-25T02:00:57.363Z,2.57
2018-09-25T02:04:06.066Z,2.23
2018-09-25T02:07:14.783Z,2.80
2018-09-25T02:10:23.507Z,2.27
2018-09-25T02:13:32.331Z,2.50
2018-09-25T02:16:41.165Z,2.37
2018-09-25T02:19:50.026Z,2.03
2018-09-25T02:22:58.738Z,2.33
2018-09-25T02:26:07.606Z,2.10
2018-09-25T02:29:16.522Z,2.50
2018-09-25T02:32:25.371Z,2.00
2018-09-25T02:35:34.336Z,2.40
2018-09-25T02:38:43.058Z,2.80
2018-09-25T02:41:51.727Z,2.87
2018-09-25T02:45:00.474Z,3.57
2018-09-25T02:48:09.212Z,2.93
2018-09-25T02:51:18.236Z,2.83
2018-09-25T02:54:27.016Z,2.53
2018-09-25T02:57:35.696Z,3.40
2018-09-25T03:00:44.496Z,3.07
2018-09-25T03:03:53.392Z,3.47
2018-09-25T03:07:02.772Z,3.60
2018-09-25T03:10:11.916Z,3.37
2018-09-25T03:13:20.781Z,3.33
2018-09-25T03:16:29.671Z,4.33
2018-09-25T03:19:38.382Z,3.83
2018-09-25T03:22:47.060Z,4.30
2018-09-25T03:25:55.867Z,4.80
2018-09-25T03:29:04.679Z,3.80
2018-09-25T03:32:13.487Z,4.13
2018-09-25T03:35:22.258Z,4.67
2018-09-25T03:38:31.170Z,3.33
2018-09-25T03:41:40.099Z,4.07
2018-09-25T03:44:48.843Z,3.97
2018-09-25T03:47:57.664Z,4.40
2018-09-25T03:51:06.459Z,4.53
2018-09-25T03:54:15.503Z,4.70
2018-09-25T03:57:24.375Z,5.27
2018-09-25T04:00:33.134Z,5.60
2018-09-25T04:03:41.929Z,5.20
2018-09-25T04:06:50.683Z,5.63
2018-09-25T04:09:59.493Z,5.40
2018-09-25T04:13:08.359Z,5.40
2018-09-25T04:16:17.160Z,6.47
2018-09-25T04:19:25.953Z,5.87
2018-09-25T04:22:34.724Z,6.20
2018-09-25T04:25:43.601Z,6.17
2018-09-25T04:28:52.463Z,5.60
2018-09-25T04:32:01.275Z,5.70
2018-09-25T04:35:10.294Z,6.07
2018-09-25T04:38:19.008Z,5.23
2018-09-25T04:41:27.789Z,5.90
2018-09-25T04:44:36.647Z,5.83
2018-09-25T04:47:45.631Z,6.10
2018-09-25T04:50:54.363Z,6.10
2018-09-25T04:54:03.368Z,6.03
2018-09-25T04:57:12.346Z,5.70
2018-09-25T05:00:21.083Z,5.93
2018-09-25T05:03:29.850Z,5.83
2018-09-25T05:06:38.629Z,6.10
2018-09-25T05:09:47.370Z,6.10
2018-09-25T05:12:56.155Z,6.30
2018-09-25T05:16:05.013Z,6.53
2018-09-25T05:19:13.704Z,6.60
2018-09-25T05:22:22.511Z,6.90
2018-09-25T05:25:31.250Z,5.80
2018-09-25T05:28:40.136Z,6.77
2018-09-25T05:31:49.109Z,6.27
2018-09-25T05:34:58.025Z,6.50
2018-09-25T05:38:06.685Z,6.33
2018-09-25T05:41:15.400Z,6.40
2018-09-25T05:44:24.134Z,6.30
2018-09-25T05:47:33.042Z,6.00
2018-09-25T05:50:41.720Z,6.80
2018-09-25T05:53:50.579Z,6.27
2018-09-25T05:56:59.364Z,6.27
2018-09-25T06:00:07.971Z,5.97
2018-09-25T06:03:16.863Z,5.50
2018-09-25T06:06:25.685Z,6.20
2018-09-25T06:09:34.551Z,6.07
2018-09-25T06:12:43.205Z,5.30
2018-09-25T06:15:52.081Z,6.23
2018-09-25T06:19:00.810Z,5.40
2018-09-25T06:22:09.580Z,6.00
2018-09-25T06:25:18.216Z,6.20
2018-09-25T06:28:26.993Z,5.87
2018-09-25T06:31:35.708Z,5.53
2018-09-25T06:34:44.590Z,6.37
2018-09-25T06:37:53.246Z,5.40
2018-09-25T06:41:02.138Z,6.23
2018-09-25T06:44:10.651Z,6.00
2018-09-25T06:47:19.401Z,6.27
2018-09-25T06:50:28.090Z,6.13
2018-09-25T06:53:36.809Z,5.80
2018-09-25T06:56:45.550Z,6.20
2018-09-25T06:59:54.518Z,6.30
2018-09-25T07:03:03.373Z,6.63
2018-09-25T07:06:12.096Z,5.87
2018-09-25T07:09:20.901Z,6.87
2018-09-25T07:12:29.642Z,7.17
2018-09-25T07:15:38.407Z,6.63
2018-09-25T07:18:47.209Z,6.80
2018-09-25T07:21:55.970Z,6.13
2018-09-25T07:25:04.852Z,6.90
2018-09-25T07:28:13.580Z,6.80
2018-09-25T07:31:22.412Z,6.70
2018-09-25T07:34:31.227Z,7.50
2018-09-25T07:37:39.995Z,7.13
2018-09-25T07:40:48.738Z,7.10
2018-09-25T07:43:57.437Z,7.07
2018-09-25T07:47:06.253Z,7.13
2018-09-25T07:50:15.015Z,6.83
2018-09-25T07:53:23.822Z,7.00
2018-09-25T07:56:32.776Z,7.50
2018-09-25T07:59:41.568Z,7.90
2018-09-25T08:02:50.341Z,8.23
2018-09-25T08:05:59.122Z,9.40
2018-09-25T08:09:07.975Z,8.20
2018-09-25T08:12:16.636Z,7.90
2018-09-25T08:15:25.610Z,8.50
2018-09-25T08:18:34.427Z,8.37
2018-09-25T08:21:43.228Z,8.30
2018-09-25T08:24:52.100Z,7.87
2018-09-25T08:28:00.836Z,7.73
2018-09-25T08:31:09.593Z,8.20
2018-09-25T08:34:18.620Z,8.50
2018-09-25T08:37:27.391Z,8.60
2018-09-25T08:40:36.256Z,8.37
2018-09-25T08:43:45.042Z,8.30
2018-09-25T08:46:53.877Z,8.77
2018-09-25T08:50:02.561Z,9.23
2018-09-25T08:53:11.533Z,9.50
2018-09-25T08:56:20.364Z,8.80
2018-09-25T08:59:29.129Z,9.53
2018-09-25T09:02:37.866Z,10.37
2018-09-25T09:05:46.536Z,8.73
2018-09-25T09:08:55.356Z,7.03
2018-09-25T09:12:04.211Z,7.33
2018-09-25T09:15:12.984Z,7.23
2018-09-25T09:18:21.768Z,6.83
2018-09-25T09:21:30.602Z,7.30
2018-09-25T09:24:39.310Z,6.23
2018-09-25T09:27:48.188Z,5.57
2018-09-25T09:30:56.968Z,6.87
2018-09-25T09:34:05.806Z,6.10
2018-09-25T09:37:14.528Z,5.87
2018-09-25T09:40:23.228Z,6.63
2018-09-25T09:43:32.018Z,6.33
2018-09-25T09:46:40.729Z,6.73
2018-09-25T09:49:49.812Z,6.00
2018-09-25T09:52:58.563Z,4.90
2018-09-25T09:56:07.305Z,5.43
2018-09-25T09:59:16.059Z,6.40
2018-09-25T10:02:24.875Z,5.97
2018-09-25T10:05:33.633Z,4.37
2018-09-25T10:08:42.527Z,6.40
2018-09-25T10:11:51.250Z,5.60
2018-09-25T10:15:00.103Z,6.00
2018-09-25T10:18:08.861Z,4.00
2018-09-25T10:21:17.686Z,3.70
2018-09-25T10:24:26.403Z,3.90
2018-09-25T10:27:35.459Z,3.67
2018-09-25T10:30:44.448Z,3.80
2018-09-25T10:33:53.226Z,4.00
2018-09-25T10:37:02.271Z,4.07
2018-09-25T10:40:11.067Z,3.77
2018-09-25T10:43:19.919Z,3.80
2018-09-25T10:46:28.787Z,3.77
2018-09-25T10:49:37.513Z,3.83
2018-09-25T10:52:46.417Z,3.97
2018-09-25T10:55:55.303Z,4.20
2018-09-25T10:59:03.997Z,4.30
2018-09-25T11:02:12.929Z,3.70
2018-09-25T11:05:21.667Z,3.90
2018-09-25T11:08:30.503Z,3.50
2018-09-25T11:11:39.294Z,3.10
2018-09-25T11:14:48.075Z,3.23
2018-09-25T11:17:56.699Z,2.50
2018-09-25T11:21:05.480Z,2.50
2018-09-25T11:24:14.472Z,2.73
2018-09-25T11:27:23.297Z,3.00
2018-09-25T11:30:32.249Z,3.60
2018-09-25T11:33:41.035Z,3.40
2018-09-25T11:36:49.815Z,3.23
2018-09-25T11:39:58.603Z,3.30
2018-09-25T11:43:07.469Z,3.00
2018-09-25T11:46:16.266Z,3.03
2018-09-25T11:49:25.045Z,2.67
2018-09-25T11:52:34.067Z,2.70
2018-09-25T11:55:42.790Z,3.27
2018-09-25T11:58:51.583Z,2.77
2018-09-25T12:02:00.287Z,2.87
2018-09-25T12:05:09.109Z,2.67
2018-09-25T12:08:18.004Z,2.90
2018-09-25T12:11:26.760Z,2.27
2018-09-25T12:14:35.705Z,2.67
2018-09-25T12:17:44.418Z,2.90
2018-09-25T12:20:53.048Z,3.10
2018-09-25T12:24:01.859Z,3.20
2018-09-25T12:27:10.548Z,2.37
2018-09-25T12:30:19.268Z,2.63
2018-09-25T12:33:28.077Z,3.07
2018-09-25T12:36:36.848Z,2.67
2018-09-25T12:39:45.820Z,3.17
2018-09-25T12:42:54.751Z,2.70
2018-09-25T12:46:03.659Z,2.67
2018-09-25T12:49:13.015Z,2.70
2018-09-25T12:52:21.689Z,2.83
2018-09-25T12:55:30.531Z,2.53
2018-09-25T12:58:39.329Z,2.20
2018-09-25T13:01:48.041Z,2.63
2018-09-25T13:04:56.868Z,2.40
2018-09-25T13:08:05.635Z,2.50
2018-09-25T13:11:14.350Z,2.93
2018-09-25T13:14:23.139Z,2.67
2018-09-25T13:17:32.046Z,2.50
2018-09-25T13:20:40.841Z,2.60
2018-09-25T13:23:49.779Z,3.30
2018-09-25T13:26:58.714Z,3.30
2018-09-25T13:30:07.917Z,2.73
2018-09-25T13:33:17.485Z,3.10
2018-09-25T13:36:26.270Z,2.90
2018-09-25T13:39:35.086Z,2.80
2018-09-25T13:42:43.916Z,2.90
2018-09-25T13:45:53.000Z,2.90
2018-09-25T13:49:01.889Z,2.90
2018-09-25T13:52:10.890Z,2.80
2018-09-25T13:55:24.980Z,2.70
2018-09-25T13:58:33.994Z,2.90
2018-09-25T14:01:43.576Z,3.00
2018-09-25T14:04:52.476Z,3.10
2018-09-25T14:08:01.877Z,2.60
2018-09-25T14:11:10.951Z,2.50
2018-09-25T14:14:20.496Z,2.60
2018-09-25T14:17:29.256Z,2.97
2018-09-25T14:20:38.249Z,2.70
2018-09-25T14:23:47.568Z,2.07
2018-09-25T14:26:56.460Z,2.37
2018-09-25T14:30:14.191Z,4.40
2018-09-25T14:33:23.862Z,2.73
2018-09-25T14:36:33.128Z,3.23
2018-09-25T14:39:41.897Z,2.77
2018-09-25T14:42:51.432Z,3.60
2018-09-25T14:46:00.282Z,3.83
2018-09-25T14:49:09.316Z,3.17
2018-09-25T14:52:18.517Z,2.90
2018-09-25T14:55:27.614Z,4.20
2018-09-25T14:58:36.433Z,3.40
2018-09-25T15:01:45.376Z,3.10
2018-09-25T15:04:54.227Z,3.07
2018-09-25T15:08:03.111Z,3.50
2018-09-25T15:11:11.946Z,3.10
2018-09-25T15:14:20.926Z,2.90
2018-09-25T15:17:29.654Z,2.80
2018-09-25T15:20:38.509Z,3.13
2018-09-25T15:23:47.425Z,2.80
2018-09-25T15:26:56.283Z,2.57
2018-09-25T15:33:37.177Z,2.43
2018-09-25T15:36:45.980Z,2.53
2018-09-25T15:39:54.813Z,2.30
2018-09-25T15:43:03.589Z,2.93
2018-09-25T15:46:12.584Z,2.60
2018-09-25T15:49:21.678Z,2.63
2018-09-25T15:52:30.673Z,2.17
2018-09-25T15:55:39.719Z,2.47
2018-09-25T15:58:48.527Z,2.60
2018-09-25T16:01:57.465Z,2.50
2018-09-25T16:05:06.062Z,2.53
2018-09-25T16:08:15.415Z,2.17
2018-09-25T16:11:24.376Z,2.27
2018-09-25T16:14:33.411Z,2.00
2018-09-25T16:17:42.081Z,2.50
2018-09-25T16:20:50.859Z,2.67
2018-09-25T16:23:59.576Z,2.30
2018-09-25T16:27:08.543Z,2.70
2018-09-25T16:30:17.288Z,2.20
2018-09-25T16:33:26.147Z,2.57
2018-09-25T16:36:35.126Z,2.63
2018-09-25T16:39:44.151Z,2.70
2018-09-25T16:42:53.161Z,2.70
2018-09-25T16:46:01.994Z,2.87
2018-09-25T16:49:10.872Z,2.60
2018-09-25T16:52:19.707Z,2.70
2018-09-25T16:55:28.523Z,3.13
2018-09-25T16:58:37.261Z,2.73
2018-09-25T17:01:46.009Z,2.90
2018-09-25T17:04:54.723Z,2.80
2018-09-25T17:08:03.660Z,2.97
2018-09-25T17:11:12.603Z,2.60
2018-09-25T17:14:21.356Z,3.37
2018-09-25T17:17:31.496Z,2.80
2018-09-25T17:20:40.299Z,2.70
2018-09-25T17:23:51.974Z,2.93
2018-09-25T17:27:00.963Z,2.80
2018-09-25T17:30:10.288Z,2.70
2018-09-25T17:33:19.029Z,2.83
2018-09-25T17:36:27.808Z,2.60
2018-09-25T17:39:36.720Z,3.30
2018-09-25T17:42:45.588Z,2.60
2018-09-25T17:45:54.702Z,3.73
2018-09-25T17:49:03.853Z,2.80
2018-09-25T17:52:13.145Z,2.80
2018-09-25T17:55:21.929Z,2.93
2018-09-25T17:58:30.634Z,3.00
2018-09-25T18:01:39.672Z,2.80
2018-09-25T18:04:48.474Z,3.03
2018-09-25T18:07:57.380Z,3.10
2018-09-25T18:11:06.256Z,3.23
2018-09-25T18:14:15.969Z,2.80
2018-09-25T18:17:24.942Z,3.83
2018-09-25T18:20:33.738Z,3.23
2018-09-25T18:23:42.779Z,2.87
2018-09-25T18:26:51.720Z,3.03
2018-09-25T18:30:00.726Z,3.43
2018-09-25T18:33:09.605Z,2.73
2018-09-25T18:36:18.558Z,3.07
2018-09-25T18:39:27.528Z,2.60
2018-09-25T18:42:36.499Z,2.47
2018-09-25T18:45:45.493Z,3.37
2018-09-25T18:48:54.236Z,3.10
2018-09-25T18:52:03.286Z,2.90
2018-09-25T18:55:12.261Z,2.53
2018-09-25T18:58:21.005Z,3.30
2018-09-25T19:01:30.029Z,3.20
2018-09-25T19:04:39.103Z,2.50
2018-09-25T19:07:47.972Z,2.60
2018-09-25T19:10:56.834Z,3.07
2018-09-25T19:14:05.684Z,3.10
2018-09-25T19:17:14.520Z,2.73
2018-09-25T19:20:23.407Z,4.00
2018-09-25T19:23:32.393Z,3.00
2018-09-25T19:26:41.477Z,3.47
2018-09-25T19:29:50.259Z,3.10
2018-09-25T19:32:59.134Z,4.17
2018-09-25T19:36:08.211Z,3.00
2018-09-25T19:39:17.098Z,3.47
2018-09-25T19:42:25.892Z,3.50
2018-09-25T19:45:34.812Z,4.33
2018-09-25T19:48:43.594Z,2.80
2018-09-25T19:51:52.492Z,3.47
2018-09-25T19:55:01.285Z,3.17
2018-09-25T19:58:09.980Z,3.60
2018-09-25T20:01:19.039Z,3.23
2018-09-25T20:04:27.940Z,3.53
2018-09-25T20:07:36.976Z,3.60
2018-09-25T20:10:45.725Z,4.20
2018-09-25T20:13:54.545Z,3.30
2018-09-25T20:17:03.296Z,4.20
2018-09-25T20:20:12.267Z,2.73
2018-09-25T20:23:21.289Z,3.53
2018-09-25T20:26:30.197Z,3.00
2018-09-25T20:29:39.101Z,3.50
2018-09-25T20:32:48.732Z,3.03
2018-09-25T20:35:57.537Z,3.50
2018-09-25T20:39:06.390Z,4.07
2018-09-25T20:42:15.218Z,3.47
2018-09-25T20:45:28.545Z,4.13
2018-09-25T20:48:37.488Z,3.70
2018-09-25T20:51:46.377Z,3.60
2018-09-25T20:54:55.386Z,4.33
2018-09-25T20:58:04.169Z,3.50
2018-09-25T21:01:12.928Z,3.60
2018-09-25T21:04:21.814Z,3.60
2018-09-25T21:07:30.606Z,3.37
2018-09-25T21:10:39.729Z,4.17
2018-09-25T21:13:48.574Z,3.50
2018-09-25T21:16:57.408Z,3.40
2018-09-25T21:20:06.216Z,3.50
2018-09-25T21:23:15.177Z,3.50
2018-09-25T21:26:23.933Z,3.60
2018-09-25T21:29:32.727Z,3.37
2018-09-25T21:32:41.679Z,4.03
2018-09-25T21:35:50.422Z,3.80
2018-09-25T21:38:59.152Z,3.30
2018-09-25T21:42:07.923Z,3.40
2018-09-25T21:45:16.627Z,3.00
2018-09-25T21:48:25.239Z,3.60
2018-09-25T21:51:34.071Z,3.40
2018-09-25T21:54:42.660Z,3.20
2018-09-25T21:57:51.650Z,3.40
2018-09-25T22:01:00.476Z,3.20
2018-09-25T22:04:09.351Z,4.10
2018-09-25T22:07:18.316Z,3.60
2018-09-25T22:10:27.014Z,2.90
2018-09-25T22:13:35.751Z,3.00
2018-09-25T22:16:44.576Z,3.27
2018-09-25T22:19:53.192Z,3.13
2018-09-25T22:23:01.916Z,3.33
2018-09-25T22:26:10.651Z,3.23
2018-09-25T22:29:19.326Z,3.30
2018-09-25T22:32:28.090Z,3.40
2018-09-25T22:35:36.801Z,3.20
2018-09-25T22:38:45.576Z,3.00
2018-09-25T22:41:54.286Z,3.00
2018-09-25T22:45:03.076Z,3.93
2018-09-25T22:48:11.916Z,3.53
2018-09-25T22:51:20.800Z,3.17
2018-09-25T22:54:29.851Z,3.57
2018-09-25T22:57:38.746Z,3.47
2018-09-25T23:00:47.446Z,4.30
2018-09-25T23:03:56.331Z,3.90
2018-09-25T23:07:06.041Z,3.73
2018-09-25T23:10:14.952Z,3.80
2018-09-25T23:13:23.650Z,3.93
2018-09-25T23:16:32.402Z,3.87
2018-09-25T23:19:41.337Z,4.07
2018-09-25T23:22:50.162Z,3.77
2018-09-25T23:25:59.065Z,4.17
2018-09-25T23:29:07.995Z,4.00
2018-09-25T23:32:16.697Z,4.23
2018-09-25T23:35:25.441Z,4.30
2018-09-25T23:38:34.134Z,4.10
2018-09-25T23:43:45.599Z,4.03
2018-09-25T23:46:55.436Z,3.70
2018-09-25T23:50:03.182Z,3.77
2018-09-25T23:53:16.007Z,4.10
2018-09-25T23:56:56.756Z,4.20
